Terminal Aerodrome Forecast
Issued by NWS Brownsville, TX

Home | Current Version | Previous Version | Text Only | Print | Product List | Glossary On
Versions: 1 2 3 4 5 6 7 8 9 10 11 12 13 14 15 16 17 18 19 20 21 22 23 24
000
FTUS44 KBRO 061720
TAFMFE
TAF
KMFE 061720Z 0618/0718 17004KT P6SM SKC
      TEMPO 0618/0620 6SM HZ
     FM070600 09005KT 4SM BR SCT007 BKN015
      TEMPO 0709/0712 2SM BR BKN007
     FM071500 34005KT 5SM BR SCT007 BKN015=

USA.gov is the U.S. government's official web portal to all federal, state and local government web resources and services.